createdAt,value
2022-10-08T00:00:47.752Z,6.30
2022-10-08T00:01:47.793Z,6.20
2022-10-08T00:02:48.236Z,5.70
2022-10-08T00:03:47.815Z,6.70
2022-10-08T00:04:47.661Z,5.00
2022-10-08T00:05:47.636Z,6.00
2022-10-08T00:06:47.616Z,5.20
2022-10-08T00:07:47.610Z,5.80
2022-10-08T00:08:47.564Z,5.70
2022-10-08T00:09:47.541Z,5.70
2022-10-08T00:10:47.518Z,6.30
2022-10-08T00:11:47.492Z,6.40
2022-10-08T00:12:47.966Z,6.50
2022-10-08T00:13:47.449Z,5.80
2022-10-08T00:14:47.419Z,5.40
2022-10-08T00:15:47.449Z,6.50
2022-10-08T00:16:47.373Z,5.80
2022-10-08T00:17:47.351Z,5.90
2022-10-08T00:18:47.334Z,5.90
2022-10-08T00:19:47.308Z,5.90
2022-10-08T00:20:47.284Z,5.70
2022-10-08T00:21:47.254Z,6.00
2022-10-08T00:22:47.511Z,5.80
2022-10-08T00:23:47.229Z,6.00
2022-10-08T00:24:47.185Z,5.20
2022-10-08T00:25:47.164Z,6.10
2022-10-08T00:26:47.138Z,5.60
2022-10-08T00:27:47.118Z,5.70
2022-10-08T00:28:47.090Z,5.90
2022-10-08T00:29:47.067Z,5.80
2022-10-08T00:30:47.040Z,6.10
2022-10-08T00:31:47.133Z,5.40
2022-10-08T00:32:47.251Z,5.80
2022-10-08T00:33:46.976Z,5.30
2022-10-08T00:34:46.946Z,5.20
2022-10-08T00:35:46.926Z,5.50
2022-10-08T00:36:46.901Z,5.90
2022-10-08T00:37:46.881Z,5.80
2022-10-08T00:38:46.854Z,5.70
2022-10-08T00:39:46.851Z,5.10
2022-10-08T00:40:46.812Z,5.30
2022-10-08T00:41:46.784Z,5.10
2022-10-08T00:42:47.041Z,5.60
2022-10-08T00:43:46.734Z,5.80
2022-10-08T00:44:46.712Z,5.90
2022-10-08T00:45:46.714Z,5.60
2022-10-08T00:46:46.665Z,5.70
2022-10-08T00:47:46.645Z,5.20
2022-10-08T00:48:46.617Z,5.30
2022-10-08T00:49:46.598Z,6.50
2022-10-08T00:50:46.565Z,5.40
2022-10-08T00:51:46.541Z,5.20
2022-10-08T00:52:46.839Z,5.90
2022-10-08T00:53:46.495Z,5.40
2022-10-08T00:54:46.471Z,5.10
2022-10-08T00:55:46.535Z,5.20
2022-10-08T00:56:46.427Z,5.60
2022-10-08T00:57:46.403Z,5.40
2022-10-08T00:58:46.377Z,5.00
2022-10-08T00:59:46.352Z,5.80
2022-10-08T01:00:46.362Z,5.10
2022-10-08T01:01:46.317Z,5.80
2022-10-08T01:02:46.515Z,5.50
2022-10-08T01:03:46.258Z,6.10
2022-10-08T01:04:46.236Z,4.80
2022-10-08T01:05:46.208Z,5.40
2022-10-08T01:06:46.181Z,5.00
2022-10-08T01:07:46.161Z,5.20
2022-10-08T01:08:46.141Z,5.70
2022-10-08T01:09:46.114Z,5.70
2022-10-08T01:10:46.087Z,5.60
2022-10-08T01:11:46.103Z,5.40
2022-10-08T01:12:46.414Z,5.90
2022-10-08T01:13:46.018Z,5.90
2022-10-08T01:14:45.995Z,5.40
2022-10-08T01:15:45.974Z,5.50
2022-10-08T01:16:46.104Z,5.60
2022-10-08T01:17:45.923Z,5.30
2022-10-08T01:18:45.900Z,5.40
2022-10-08T01:19:45.877Z,6.30
2022-10-08T01:20:45.856Z,5.50
2022-10-08T01:21:45.833Z,5.20
2022-10-08T01:22:46.132Z,5.70
2022-10-08T01:23:45.780Z,5.00
2022-10-08T01:24:45.755Z,5.20
2022-10-08T01:25:45.738Z,5.20
2022-10-08T01:26:45.708Z,5.60
2022-10-08T01:27:45.702Z,5.20
2022-10-08T01:28:45.781Z,5.70
2022-10-08T01:29:45.638Z,6.00
2022-10-08T01:30:45.613Z,5.10
2022-10-08T01:31:45.694Z,5.60
2022-10-08T01:32:45.890Z,4.90
2022-10-08T01:33:45.541Z,6.60
2022-10-08T01:34:45.518Z,6.90
2022-10-08T01:35:45.497Z,5.40
2022-10-08T01:36:45.466Z,6.20
2022-10-08T01:37:45.451Z,5.50
2022-10-08T01:38:45.420Z,5.80
2022-10-08T01:39:45.397Z,5.60
2022-10-08T01:40:45.377Z,5.00
2022-10-08T01:41:45.348Z,5.20
2022-10-08T01:42:45.678Z,5.00
2022-10-08T01:43:45.376Z,6.00
2022-10-08T01:44:45.282Z,6.00
2022-10-08T01:45:45.297Z,5.50
2022-10-08T01:46:45.232Z,5.30
2022-10-08T01:47:45.210Z,5.30
2022-10-08T01:48:45.188Z,5.10
2022-10-08T01:49:45.165Z,5.10
2022-10-08T01:50:45.132Z,4.40
2022-10-08T01:51:45.113Z,5.30
2022-10-08T01:52:45.480Z,5.60
2022-10-08T01:53:45.063Z,5.70
2022-10-08T01:54:45.036Z,4.50
2022-10-08T01:55:45.015Z,5.40
2022-10-08T01:56:44.988Z,5.30
2022-10-08T01:57:44.972Z,4.80
2022-10-08T01:58:44.944Z,4.90
2022-10-08T01:59:44.949Z,4.80
2022-10-08T02:00:44.952Z,4.70
2022-10-08T02:01:44.909Z,4.90
2022-10-08T02:02:45.148Z,4.90
2022-10-08T02:03:44.830Z,4.70
2022-10-08T02:04:44.803Z,5.20
2022-10-08T02:05:44.779Z,5.70
2022-10-08T02:06:44.754Z,4.40
2022-10-08T02:07:44.732Z,5.20
2022-10-08T02:08:44.705Z,4.90
2022-10-08T02:09:44.683Z,4.80
2022-10-08T02:10:44.654Z,5.60
2022-10-08T02:11:44.636Z,5.00
2022-10-08T02:12:44.991Z,4.70
2022-10-08T02:13:44.590Z,4.10
2022-10-08T02:14:44.560Z,4.80
2022-10-08T02:15:44.563Z,5.10
2022-10-08T02:16:44.607Z,5.40
2022-10-08T02:17:44.488Z,5.20
2022-10-08T02:18:44.467Z,5.00
2022-10-08T02:19:44.440Z,4.70
2022-10-08T02:20:44.415Z,5.00
2022-10-08T02:21:44.396Z,5.00
2022-10-08T02:22:44.593Z,4.60
2022-10-08T02:23:44.346Z,4.50
2022-10-08T02:24:44.332Z,5.30
2022-10-08T02:25:44.305Z,5.50
2022-10-08T02:26:44.280Z,5.20
2022-10-08T02:27:44.253Z,4.80
2022-10-08T02:28:44.255Z,5.20
2022-10-08T02:29:44.202Z,4.60
2022-10-08T02:30:44.175Z,5.40
2022-10-08T02:31:44.243Z,4.40
2022-10-08T02:32:44.346Z,4.60
2022-10-08T02:33:44.106Z,5.40
2022-10-08T02:34:44.082Z,4.90
2022-10-08T02:35:44.061Z,4.50
2022-10-08T02:36:44.034Z,5.00
2022-10-08T02:37:44.019Z,4.80
2022-10-08T02:38:43.985Z,5.10
2022-10-08T02:39:43.970Z,5.10
2022-10-08T02:40:43.939Z,5.50
2022-10-08T02:41:43.913Z,4.70
2022-10-08T02:42:44.046Z,4.90
2022-10-08T02:43:43.869Z,5.10
2022-10-08T02:44:43.850Z,4.80
2022-10-08T02:45:43.837Z,4.80
2022-10-08T02:46:43.798Z,5.40
2022-10-08T02:47:43.796Z,5.00
2022-10-08T02:48:43.749Z,5.20
2022-10-08T02:49:43.733Z,5.10
2022-10-08T02:50:43.703Z,4.70
2022-10-08T02:51:43.681Z,4.60
2022-10-08T02:52:43.989Z,5.40
2022-10-08T02:53:43.631Z,5.10
2022-10-08T02:54:43.608Z,6.20
2022-10-08T02:55:43.583Z,5.10
2022-10-08T02:56:43.560Z,5.10
2022-10-08T02:57:43.536Z,5.10
2022-10-08T02:58:43.518Z,4.60
2022-10-08T02:59:43.486Z,4.80
2022-10-08T03:00:43.464Z,4.80
2022-10-08T03:01:43.505Z,5.00
2022-10-08T03:02:43.562Z,5.20
2022-10-08T03:03:43.415Z,5.40
2022-10-08T03:04:43.367Z,4.30
2022-10-08T03:05:43.345Z,5.20
2022-10-08T03:06:43.322Z,5.50
2022-10-08T03:07:43.298Z,4.80
2022-10-08T03:08:43.274Z,5.20
2022-10-08T03:09:43.255Z,4.90
2022-10-08T03:10:43.225Z,4.30
2022-10-08T03:11:43.202Z,6.00
2022-10-08T03:12:43.180Z,5.00
2022-10-08T03:13:43.158Z,4.80
2022-10-08T03:14:43.129Z,4.80
2022-10-08T03:15:43.113Z,4.50
2022-10-08T03:16:43.107Z,5.60
2022-10-08T03:17:43.061Z,4.40
2022-10-08T03:18:43.035Z,5.20
2022-10-08T03:19:43.036Z,4.70
2022-10-08T03:20:42.992Z,5.00
2022-10-08T03:21:42.966Z,4.90
2022-10-08T03:22:42.944Z,4.50
2022-10-08T03:23:42.922Z,5.50
2022-10-08T03:24:42.896Z,4.80
2022-10-08T03:25:42.872Z,5.00
2022-10-08T03:26:42.848Z,5.60
2022-10-08T03:27:42.823Z,4.80
2022-10-08T03:28:42.851Z,4.70
2022-10-08T03:29:42.775Z,5.70
2022-10-08T03:30:42.836Z,5.10
2022-10-08T03:31:42.725Z,4.90
2022-10-08T03:32:42.702Z,4.80
2022-10-08T03:33:42.680Z,5.50
2022-10-08T03:34:42.653Z,5.40
2022-10-08T03:35:42.653Z,5.60
2022-10-08T03:36:42.605Z,5.50
2022-10-08T03:37:42.585Z,4.60
2022-10-08T03:38:42.563Z,5.40
2022-10-08T03:39:42.540Z,5.40
2022-10-08T03:40:42.515Z,4.80
2022-10-08T03:41:42.491Z,5.10
2022-10-08T03:42:42.479Z,5.20
2022-10-08T03:43:42.446Z,5.30
2022-10-08T03:44:42.428Z,5.70
2022-10-08T03:45:42.423Z,5.40
2022-10-08T03:46:42.380Z,6.00
2022-10-08T03:47:42.352Z,5.00
2022-10-08T03:48:42.331Z,5.20
2022-10-08T03:49:42.300Z,5.60
2022-10-08T03:50:42.277Z,6.10
2022-10-08T03:51:42.280Z,5.40
2022-10-08T03:52:42.229Z,5.50
2022-10-08T03:53:42.212Z,5.70
2022-10-08T03:54:42.190Z,5.30
2022-10-08T03:55:42.163Z,6.00
2022-10-08T03:56:42.133Z,6.10
2022-10-08T03:57:42.111Z,5.80
2022-10-08T03:58:42.089Z,5.50
2022-10-08T03:59:42.064Z,4.70
2022-10-08T04:00:42.040Z,5.70
2022-10-08T04:01:42.062Z,5.70
2022-10-08T04:02:42.031Z,5.30
2022-10-08T04:03:41.972Z,5.60
2022-10-08T04:04:41.947Z,5.60
2022-10-08T04:05:41.925Z,5.70
2022-10-08T04:06:41.901Z,5.90
2022-10-08T04:07:41.897Z,6.10
2022-10-08T04:08:41.850Z,5.40
2022-10-08T04:09:41.825Z,5.80
2022-10-08T04:10:41.804Z,6.00
2022-10-08T04:11:41.786Z,6.80
2022-10-08T04:12:41.757Z,6.00
2022-10-08T04:13:41.732Z,6.60
2022-10-08T04:14:41.707Z,6.70
2022-10-08T04:15:41.747Z,6.10
2022-10-08T04:16:41.662Z,6.70
2022-10-08T04:17:41.641Z,6.70
2022-10-08T04:18:41.620Z,6.40
2022-10-08T04:19:41.589Z,6.50
2022-10-08T04:20:41.567Z,6.80
2022-10-08T04:21:41.544Z,7.50
2022-10-08T04:22:41.548Z,7.90
2022-10-08T04:23:41.528Z,7.30
2022-10-08T04:24:41.479Z,7.60
2022-10-08T04:25:41.447Z,7.00
2022-10-08T04:26:41.428Z,6.90
2022-10-08T04:27:41.404Z,7.70
2022-10-08T04:28:41.486Z,8.20
2022-10-08T04:29:41.358Z,7.40
2022-10-08T04:30:41.445Z,8.00
2022-10-08T04:31:41.310Z,8.70
2022-10-08T04:32:41.283Z,8.40
2022-10-08T04:33:41.262Z,8.10
2022-10-08T04:34:41.233Z,8.40
2022-10-08T04:35:41.214Z,8.60
2022-10-08T04:36:41.192Z,8.50
2022-10-08T04:37:41.170Z,8.90
2022-10-08T04:38:41.141Z,8.00
2022-10-08T04:39:41.145Z,8.30
2022-10-08T04:40:41.093Z,8.60
2022-10-08T04:41:41.074Z,8.70
2022-10-08T04:42:41.052Z,8.90
2022-10-08T04:43:41.027Z,9.30
2022-10-08T04:44:40.997Z,9.20
2022-10-08T04:45:40.985Z,9.30
2022-10-08T04:46:41.015Z,9.40
2022-10-08T04:47:40.927Z,9.50
2022-10-08T04:48:40.913Z,9.50
2022-10-08T04:49:40.887Z,9.80
2022-10-08T04:50:40.862Z,10.10
2022-10-08T04:51:40.833Z,9.50
2022-10-08T04:52:40.822Z,9.40
2022-10-08T04:53:40.792Z,10.20
2022-10-08T04:54:40.762Z,10.40
2022-10-08T04:55:40.762Z,10.30
2022-10-08T04:56:40.720Z,9.80
2022-10-08T04:57:40.696Z,10.40
2022-10-08T04:58:40.665Z,10.00
2022-10-08T04:59:59.472Z,10.00
2022-10-08T05:00:40.619Z,9.80
2022-10-08T05:01:40.632Z,10.60
2022-10-08T05:02:40.602Z,11.60
2022-10-08T05:03:40.551Z,10.90
2022-10-08T05:04:40.524Z,10.60
2022-10-08T05:05:40.503Z,11.10
2022-10-08T05:06:40.483Z,10.70
2022-10-08T05:07:40.455Z,10.60
2022-10-08T05:08:40.429Z,11.10
2022-10-08T05:09:40.409Z,10.80
2022-10-08T05:10:40.382Z,11.20
2022-10-08T05:11:40.384Z,11.60
2022-10-08T05:12:40.334Z,11.50
2022-10-08T05:13:40.311Z,11.80
2022-10-08T05:14:40.289Z,11.60
2022-10-08T05:15:40.337Z,12.00
2022-10-08T05:16:40.245Z,11.40
2022-10-08T05:17:40.215Z,11.60
2022-10-08T05:18:40.191Z,11.70
2022-10-08T05:19:40.168Z,12.10
2022-10-08T05:20:40.148Z,12.00
2022-10-08T05:21:40.125Z,12.00
2022-10-08T05:22:40.097Z,11.70
2022-10-08T05:23:40.079Z,12.80
2022-10-08T05:24:40.050Z,12.10
2022-10-08T05:25:40.036Z,12.20
2022-10-08T05:26:58.109Z,12.10
2022-10-08T05:27:40.001Z,12.50
2022-10-08T05:28:40.059Z,12.40
2022-10-08T05:29:39.929Z,12.40
2022-10-08T05:30:39.910Z,13.30
2022-10-08T05:31:39.882Z,12.80
2022-10-08T05:32:39.864Z,12.40
2022-10-08T05:33:39.839Z,12.90
2022-10-08T05:34:39.817Z,13.50
2022-10-08T05:35:39.785Z,13.40
2022-10-08T05:36:39.760Z,13.80
2022-10-08T05:37:39.745Z,13.90
2022-10-08T05:38:39.715Z,14.00
2022-10-08T05:39:39.691Z,14.30
2022-10-08T05:40:39.668Z,13.70
2022-10-08T05:41:39.652Z,14.30
2022-10-08T05:42:39.622Z,14.80
2022-10-08T05:43:39.649Z,13.60
2022-10-08T05:44:41.453Z,14.30
2022-10-08T05:45:39.552Z,14.30
2022-10-08T05:46:39.662Z,14.50
2022-10-08T05:47:39.504Z,15.70
2022-10-08T05:48:39.484Z,14.50
2022-10-08T05:49:39.454Z,14.40
2022-10-08T05:50:39.428Z,16.30
2022-10-08T05:51:39.407Z,15.00
2022-10-08T05:52:39.390Z,16.00
2022-10-08T05:53:39.360Z,14.50
2022-10-08T05:54:39.333Z,15.40
2022-10-08T05:55:39.314Z,15.30
2022-10-08T05:56:39.288Z,16.00
2022-10-08T05:57:39.268Z,16.10
2022-10-08T05:58:39.240Z,15.30
2022-10-08T05:59:39.237Z,15.70
2022-10-08T06:00:39.196Z,15.60
2022-10-08T06:01:39.173Z,16.00
2022-10-08T06:02:39.227Z,16.40
2022-10-08T06:03:39.125Z,15.20
2022-10-08T06:04:39.145Z,15.80
2022-10-08T06:05:39.075Z,17.30
2022-10-08T06:06:39.058Z,16.80
2022-10-08T06:07:39.028Z,15.80
2022-10-08T06:08:39.005Z,16.50
2022-10-08T06:09:38.983Z,16.30
2022-10-08T06:10:38.954Z,16.60
2022-10-08T06:11:38.940Z,16.10
2022-10-08T06:12:38.916Z,16.60
2022-10-08T06:13:38.887Z,17.10
2022-10-08T06:14:38.865Z,16.10
2022-10-08T06:15:38.857Z,17.30
2022-10-08T06:16:38.901Z,16.40
2022-10-08T06:17:38.794Z,16.90
2022-10-08T06:18:38.771Z,16.00
2022-10-08T06:19:38.746Z,16.50
2022-10-08T06:20:38.721Z,16.80
2022-10-08T06:21:38.701Z,16.80
2022-10-08T06:22:38.678Z,16.80
2022-10-08T06:23:38.653Z,16.70
2022-10-08T06:24:38.630Z,16.10
2022-10-08T06:25:38.605Z,17.40
2022-10-08T06:26:38.581Z,18.70
2022-10-08T06:27:38.553Z,18.00
2022-10-08T06:28:38.559Z,18.10
2022-10-08T06:29:38.515Z,17.70
2022-10-08T06:30:38.483Z,18.20
2022-10-08T06:31:38.546Z,16.90
2022-10-08T06:32:38.437Z,17.40
2022-10-08T06:33:38.411Z,17.70
2022-10-08T06:34:38.391Z,18.70
2022-10-08T06:35:38.369Z,17.50
2022-10-08T06:36:38.343Z,17.20
2022-10-08T06:37:38.317Z,18.30
2022-10-08T06:38:38.296Z,17.80
2022-10-08T06:39:38.272Z,17.40
2022-10-08T06:40:38.248Z,18.40
2022-10-08T06:41:38.226Z,17.80
2022-10-08T06:42:38.201Z,18.20
2022-10-08T06:43:38.179Z,17.10
2022-10-08T06:44:38.153Z,17.20
2022-10-08T06:45:38.131Z,18.30
2022-10-08T06:46:38.196Z,18.00
2022-10-08T06:47:38.100Z,17.40
2022-10-08T06:48:38.061Z,18.50
2022-10-08T06:49:38.046Z,16.70
2022-10-08T06:50:38.012Z,16.70
2022-10-08T06:51:37.986Z,18.10
2022-10-08T06:52:37.966Z,17.50
2022-10-08T06:53:37.939Z,17.00
2022-10-08T06:54:37.916Z,17.20
2022-10-08T06:55:37.891Z,17.00
2022-10-08T06:56:37.882Z,18.00
2022-10-08T06:57:37.845Z,17.40
2022-10-08T06:58:37.831Z,17.40
2022-10-08T06:59:37.798Z,17.00
2022-10-08T07:00:37.834Z,17.20
2022-10-08T07:01:37.878Z,17.60
2022-10-08T07:02:37.811Z,16.10
2022-10-08T07:03:37.724Z,16.70
2022-10-08T07:04:37.682Z,16.60
2022-10-08T07:05:37.657Z,17.80
2022-10-08T07:06:37.638Z,16.90
2022-10-08T07:07:37.617Z,16.80
2022-10-08T07:08:37.587Z,15.60
2022-10-08T07:09:37.568Z,16.80
2022-10-08T07:10:37.542Z,17.30
2022-10-08T07:11:37.520Z,16.50
2022-10-08T07:12:37.493Z,16.60
2022-10-08T07:13:37.470Z,16.20
2022-10-08T07:14:37.451Z,16.50
2022-10-08T07:15:37.424Z,16.70
2022-10-08T07:16:37.468Z,16.20
2022-10-08T07:17:37.373Z,15.70
2022-10-08T07:18:37.351Z,16.40
2022-10-08T07:19:37.348Z,16.40
2022-10-08T07:20:37.305Z,15.40
2022-10-08T07:21:37.288Z,15.20
2022-10-08T07:22:37.264Z,15.70
2022-10-08T07:23:37.235Z,15.70
2022-10-08T07:24:37.211Z,15.00
2022-10-08T07:25:37.192Z,15.00
2022-10-08T07:26:37.165Z,15.00
2022-10-08T07:27:39.506Z,14.00
2022-10-08T07:28:37.225Z,13.70
2022-10-08T07:29:37.099Z,15.10
2022-10-08T07:30:37.073Z,14.60
2022-10-08T07:31:37.212Z,15.00
2022-10-08T07:32:37.029Z,14.60
2022-10-08T07:33:36.998Z,14.50
2022-10-08T07:34:36.976Z,14.20
2022-10-08T07:35:36.968Z,14.10
2022-10-08T07:36:36.928Z,14.30
2022-10-08T07:37:36.909Z,14.90
2022-10-08T07:38:36.879Z,14.60
2022-10-08T07:39:36.858Z,14.30
2022-10-08T07:40:36.833Z,14.20
2022-10-08T07:41:36.815Z,14.20
2022-10-08T07:42:36.790Z,13.60
2022-10-08T07:43:36.765Z,12.80
2022-10-08T07:44:36.742Z,13.40
2022-10-08T07:45:36.750Z,13.40
2022-10-08T07:46:36.724Z,12.70
2022-10-08T07:47:36.671Z,12.90
2022-10-08T07:48:36.646Z,13.00
2022-10-08T07:49:36.623Z,12.20
2022-10-08T07:50:36.603Z,12.40
2022-10-08T07:51:36.613Z,13.40
2022-10-08T07:52:36.553Z,12.80
2022-10-08T07:53:36.530Z,13.10
2022-10-08T07:54:36.510Z,12.40
2022-10-08T07:55:36.483Z,11.60
2022-10-08T07:56:36.464Z,11.30
2022-10-08T07:57:36.439Z,12.30
2022-10-08T07:58:36.409Z,12.00
2022-10-08T07:59:36.395Z,11.00
2022-10-08T08:00:36.418Z,11.50
2022-10-08T08:01:36.350Z,11.30
2022-10-08T08:02:36.365Z,11.20
2022-10-08T08:03:36.298Z,11.30
2022-10-08T08:04:36.273Z,11.70
2022-10-08T08:05:36.249Z,11.00
2022-10-08T08:06:36.228Z,10.50
2022-10-08T08:07:36.221Z,11.40
2022-10-08T08:08:36.186Z,10.90
2022-10-08T08:09:36.161Z,10.80
2022-10-08T08:10:36.145Z,10.30
2022-10-08T08:11:36.109Z,11.30
2022-10-08T08:12:36.090Z,10.40
2022-10-08T08:13:37.452Z,10.90
2022-10-08T08:14:36.040Z,11.50
2022-10-08T08:15:36.022Z,11.20
2022-10-08T08:16:36.109Z,10.60
2022-10-08T08:17:35.972Z,10.60
2022-10-08T08:18:35.945Z,9.80
2022-10-08T08:19:35.922Z,9.40
2022-10-08T08:20:35.900Z,8.90
2022-10-08T08:21:35.879Z,10.20
2022-10-08T08:22:35.851Z,9.70
2022-10-08T08:23:35.850Z,9.60
2022-10-08T08:24:35.807Z,9.40
2022-10-08T08:25:35.787Z,9.00
2022-10-08T08:26:35.767Z,9.10
2022-10-08T08:27:35.737Z,8.80
2022-10-08T08:28:35.761Z,9.00
2022-10-08T08:29:35.689Z,9.00
2022-10-08T08:30:35.667Z,9.00
2022-10-08T08:31:35.788Z,8.70
2022-10-08T08:32:35.623Z,7.80
2022-10-08T08:33:35.600Z,8.30
2022-10-08T08:34:35.573Z,8.30
2022-10-08T08:35:35.552Z,8.30
2022-10-08T08:36:35.523Z,7.70
2022-10-08T08:37:35.506Z,8.00
2022-10-08T08:38:35.482Z,7.60
2022-10-08T08:39:35.477Z,7.90
2022-10-08T08:40:35.433Z,7.10
2022-10-08T08:41:35.411Z,7.40
2022-10-08T08:42:35.389Z,7.90
2022-10-08T08:43:35.363Z,7.90
2022-10-08T08:44:35.341Z,7.80
2022-10-08T08:45:46.304Z,6.80
2022-10-08T08:46:35.346Z,7.30
2022-10-08T08:47:35.273Z,7.40
2022-10-08T08:48:35.248Z,7.30
2022-10-08T08:49:35.293Z,6.90
2022-10-08T08:50:35.203Z,7.00
2022-10-08T08:51:35.182Z,6.50
2022-10-08T08:52:35.159Z,6.90
2022-10-08T08:53:35.132Z,6.70
2022-10-08T08:54:35.113Z,7.00
2022-10-08T08:55:35.112Z,6.70
2022-10-08T08:56:35.066Z,6.50
2022-10-08T08:57:35.044Z,6.30
2022-10-08T08:58:35.019Z,6.20
2022-10-08T08:59:34.994Z,6.50
2022-10-08T09:00:34.973Z,6.80
2022-10-08T09:01:35.049Z,7.50
2022-10-08T09:02:34.922Z,6.10
2022-10-08T09:03:34.907Z,6.30
2022-10-08T09:04:34.876Z,5.90
2022-10-08T09:05:34.949Z,6.30
2022-10-08T09:06:34.834Z,5.80
2022-10-08T09:07:34.813Z,6.60
2022-10-08T09:08:34.786Z,6.00
2022-10-08T09:09:34.772Z,5.90
2022-10-08T09:10:34.750Z,5.80
2022-10-08T09:11:34.741Z,6.40
2022-10-08T09:12:34.694Z,6.50
2022-10-08T09:13:34.675Z,6.10
2022-10-08T09:14:34.648Z,6.50
2022-10-08T09:15:34.631Z,6.60
2022-10-08T09:16:34.667Z,5.70
2022-10-08T09:17:34.581Z,6.30
2022-10-08T09:18:34.561Z,5.70
2022-10-08T09:19:34.535Z,5.60
2022-10-08T09:20:39.268Z,5.30
2022-10-08T09:21:34.485Z,6.10
2022-10-08T09:22:34.464Z,5.40
2022-10-08T09:23:34.443Z,6.30
2022-10-08T09:24:34.420Z,6.00
2022-10-08T09:25:34.395Z,5.60
2022-10-08T09:26:34.373Z,6.20
2022-10-08T09:27:34.372Z,6.00
2022-10-08T09:28:34.374Z,5.60
2022-10-08T09:29:34.307Z,5.60
2022-10-08T09:30:34.417Z,5.60
2022-10-08T09:31:34.326Z,5.70
2022-10-08T09:32:34.235Z,5.60
2022-10-08T09:33:34.213Z,6.50
2022-10-08T09:34:34.187Z,6.20
2022-10-08T09:35:34.168Z,5.80
2022-10-08T09:36:34.145Z,5.40
2022-10-08T09:37:34.132Z,6.20
2022-10-08T09:38:34.098Z,5.60
2022-10-08T09:39:34.077Z,5.20
2022-10-08T09:40:34.058Z,5.70
2022-10-08T09:41:34.028Z,6.20
2022-10-08T09:42:34.003Z,5.40
2022-10-08T09:43:34.006Z,4.50
2022-10-08T09:44:33.959Z,4.50
2022-10-08T09:45:33.938Z,4.60
2022-10-08T09:46:33.917Z,5.40
2022-10-08T09:47:33.899Z,4.50
2022-10-08T09:48:33.898Z,4.50
2022-10-08T09:49:33.872Z,4.20
2022-10-08T09:50:33.837Z,3.90
2022-10-08T09:51:33.805Z,4.30
2022-10-08T09:52:33.778Z,4.10
2022-10-08T09:53:33.757Z,4.20
2022-10-08T09:54:33.733Z,3.80
2022-10-08T09:55:33.711Z,3.80
2022-10-08T09:56:33.689Z,3.60
2022-10-08T09:57:33.667Z,3.40
2022-10-08T09:58:33.644Z,3.40
2022-10-08T09:59:33.645Z,3.20
2022-10-08T10:00:33.599Z,3.00
2022-10-08T10:01:33.618Z,3.20
2022-10-08T10:02:33.552Z,3.10
2022-10-08T10:03:33.607Z,3.50
2022-10-08T10:04:33.507Z,3.30
2022-10-08T10:05:33.485Z,3.30
2022-10-08T10:06:33.472Z,2.90
2022-10-08T10:07:33.437Z,3.40
2022-10-08T10:08:33.418Z,3.10
2022-10-08T10:09:33.397Z,3.30
2022-10-08T10:10:33.377Z,3.10
2022-10-08T10:11:33.347Z,3.40
2022-10-08T10:12:33.325Z,3.40
2022-10-08T10:13:33.300Z,3.60
2022-10-08T10:14:33.279Z,3.50
2022-10-08T10:15:33.280Z,3.60
2022-10-08T10:16:33.286Z,3.90
2022-10-08T10:17:33.210Z,3.10
2022-10-08T10:18:33.187Z,3.40
2022-10-08T10:19:33.168Z,3.10
2022-10-08T10:20:33.144Z,3.10
2022-10-08T10:21:33.140Z,3.10
2022-10-08T10:22:33.099Z,3.30
2022-10-08T10:23:33.075Z,3.10
2022-10-08T10:24:33.051Z,3.10
2022-10-08T10:25:33.031Z,2.90
2022-10-08T10:26:33.009Z,3.30
2022-10-08T10:27:32.986Z,3.20
2022-10-08T10:28:33.032Z,2.70
2022-10-08T10:29:32.944Z,2.30
2022-10-08T10:30:32.984Z,2.70
2022-10-08T10:31:32.919Z,2.30
2022-10-08T10:32:32.875Z,2.60
2022-10-08T10:33:32.856Z,2.20
2022-10-08T10:34:32.826Z,2.20
2022-10-08T10:35:32.811Z,2.20
2022-10-08T10:36:32.785Z,2.20
2022-10-08T10:37:32.764Z,2.40
2022-10-08T10:38:32.739Z,2.20
2022-10-08T10:39:32.719Z,2.10
2022-10-08T10:40:32.692Z,2.10
2022-10-08T10:41:32.671Z,2.10
2022-10-08T10:42:32.649Z,2.20
2022-10-08T10:43:32.628Z,1.60
2022-10-08T10:44:32.610Z,1.70
2022-10-08T10:45:32.581Z,2.20
2022-10-08T10:46:32.636Z,1.90
2022-10-08T10:47:32.587Z,1.90
2022-10-08T10:48:32.517Z,2.20
2022-10-08T10:49:32.489Z,1.90
2022-10-08T10:50:32.461Z,2.00
2022-10-08T10:51:32.445Z,2.20
2022-10-08T10:52:32.417Z,2.10
2022-10-08T10:53:32.406Z,1.40
2022-10-08T10:54:32.376Z,2.00
2022-10-08T10:55:32.350Z,2.40
2022-10-08T10:56:32.330Z,1.80
2022-10-08T10:57:32.312Z,1.90
2022-10-08T10:58:32.287Z,1.90
2022-10-08T10:59:32.266Z,1.60
2022-10-08T11:00:32.242Z,1.60
2022-10-08T11:01:32.299Z,1.50
2022-10-08T11:02:32.276Z,1.40
2022-10-08T11:03:32.278Z,1.70
2022-10-08T11:04:32.146Z,2.10
2022-10-08T11:05:32.126Z,1.70
2022-10-08T11:06:32.105Z,1.40
2022-10-08T11:07:32.086Z,1.60
2022-10-08T11:08:32.059Z,1.70
2022-10-08T11:09:32.040Z,1.60
2022-10-08T11:10:32.018Z,1.90
2022-10-08T11:11:33.280Z,1.60
2022-10-08T11:12:31.973Z,1.20
2022-10-08T11:13:31.947Z,1.80
2022-10-08T11:14:31.926Z,1.00
2022-10-08T11:15:31.980Z,1.10
2022-10-08T11:16:31.882Z,1.60
2022-10-08T11:17:31.860Z,1.10
2022-10-08T11:18:31.837Z,1.20
2022-10-08T11:19:31.837Z,1.10
2022-10-08T11:20:31.806Z,1.20
2022-10-08T11:21:31.770Z,1.60
2022-10-08T11:22:31.751Z,1.50
2022-10-08T11:23:31.723Z,1.50
2022-10-08T11:24:31.704Z,1.80
2022-10-08T11:25:31.857Z,1.40
2022-10-08T11:26:31.654Z,1.40
2022-10-08T11:27:31.631Z,1.80
2022-10-08T11:28:31.646Z,1.70
2022-10-08T11:29:31.586Z,1.60
2022-10-08T11:30:31.570Z,1.60
2022-10-08T11:31:31.547Z,1.80
2022-10-08T11:32:31.526Z,1.50
2022-10-08T11:33:31.494Z,1.40
2022-10-08T11:34:31.471Z,1.50
2022-10-08T11:35:31.476Z,1.60
2022-10-08T11:36:33.089Z,2.00
2022-10-08T11:37:31.411Z,1.70
2022-10-08T11:38:31.383Z,1.90
2022-10-08T11:39:31.363Z,1.30
2022-10-08T11:40:31.336Z,1.60
2022-10-08T11:41:31.312Z,1.60
2022-10-08T11:42:31.290Z,1.70
2022-10-08T11:43:31.265Z,1.80
2022-10-08T11:44:31.249Z,1.70
2022-10-08T11:45:31.222Z,1.90
2022-10-08T11:46:31.425Z,1.70
2022-10-08T11:47:31.178Z,2.30
2022-10-08T11:48:31.152Z,1.80
2022-10-08T11:49:31.134Z,2.50
2022-10-08T11:50:31.123Z,1.70
2022-10-08T11:51:31.105Z,1.90
2022-10-08T11:52:31.061Z,1.80
2022-10-08T11:53:31.036Z,2.20
2022-10-08T11:54:31.019Z,2.50
2022-10-08T11:55:31.003Z,2.30
2022-10-08T11:56:30.975Z,2.00
2022-10-08T11:57:43.719Z,2.10
2022-10-08T11:58:30.926Z,2.00
2022-10-08T11:59:30.904Z,1.80
2022-10-08T12:00:30.882Z,2.10
2022-10-08T12:01:30.863Z,2.00
2022-10-08T12:02:30.972Z,1.80
2022-10-08T12:03:30.963Z,1.60
2022-10-08T12:04:30.796Z,2.00
2022-10-08T12:05:30.767Z,2.20
2022-10-08T12:06:30.746Z,2.20
2022-10-08T12:07:30.742Z,1.60
2022-10-08T12:08:30.701Z,1.70
2022-10-08T12:09:30.679Z,2.30
2022-10-08T12:10:30.656Z,1.70
2022-10-08T12:11:30.635Z,1.60
2022-10-08T12:12:30.612Z,1.70
2022-10-08T12:13:30.591Z,1.80
2022-10-08T12:14:30.571Z,1.50
2022-10-08T12:15:30.546Z,1.90
2022-10-08T12:16:30.561Z,2.00
2022-10-08T12:17:30.499Z,1.70
2022-10-08T12:18:30.479Z,1.80
2022-10-08T12:19:30.456Z,1.70
2022-10-08T12:20:30.437Z,1.50
2022-10-08T12:21:30.413Z,2.10
2022-10-08T12:22:30.391Z,1.60
2022-10-08T12:23:30.386Z,1.70
2022-10-08T12:24:30.346Z,2.20
2022-10-08T12:25:30.327Z,1.50
2022-10-08T12:26:30.299Z,1.50
2022-10-08T12:27:30.276Z,1.60
2022-10-08T12:28:30.324Z,1.50
2022-10-08T12:29:30.239Z,1.70
2022-10-08T12:30:30.213Z,1.60
2022-10-08T12:31:30.325Z,1.30
2022-10-08T12:32:30.167Z,1.60
2022-10-08T12:33:30.146Z,1.60
2022-10-08T12:34:30.121Z,1.60
2022-10-08T12:35:30.096Z,1.40
2022-10-08T12:36:30.080Z,1.70
2022-10-08T12:37:30.056Z,1.70
2022-10-08T12:38:30.035Z,1.70
2022-10-08T12:39:30.036Z,1.80
2022-10-08T12:40:29.993Z,1.90
2022-10-08T12:41:29.969Z,1.50
2022-10-08T12:42:29.952Z,1.40
2022-10-08T12:43:29.922Z,1.70
2022-10-08T12:44:29.907Z,1.60
2022-10-08T12:45:29.877Z,1.70
2022-10-08T12:46:29.949Z,1.60
2022-10-08T12:47:29.832Z,1.40
2022-10-08T12:48:29.812Z,1.80
2022-10-08T12:49:29.790Z,2.00
2022-10-08T12:50:29.761Z,1.40
2022-10-08T12:51:29.745Z,1.70
2022-10-08T12:52:29.721Z,1.60
2022-10-08T12:53:29.693Z,1.40
2022-10-08T12:54:29.673Z,1.60
2022-10-08T12:55:32.294Z,2.00
2022-10-08T12:56:29.632Z,1.60
2022-10-08T12:57:29.609Z,1.70
2022-10-08T12:58:29.597Z,1.20
2022-10-08T12:59:29.563Z,1.80
2022-10-08T13:00:29.579Z,1.90
2022-10-08T13:01:29.686Z,1.70
2022-10-08T13:02:29.497Z,1.50
2022-10-08T13:03:29.474Z,2.00
2022-10-08T13:04:29.449Z,2.00
2022-10-08T13:05:29.428Z,1.40
2022-10-08T13:06:33.839Z,1.60
2022-10-08T13:07:29.382Z,1.60
2022-10-08T13:08:29.366Z,1.90
2022-10-08T13:09:29.339Z,1.70
2022-10-08T13:10:29.318Z,1.70
2022-10-08T13:11:29.312Z,1.80